createdAt,value
2023-05-21T00:01:16.302Z,14.02
2023-05-21T00:03:45.809Z,13.55
2023-05-21T00:06:15.801Z,12.27
2023-05-21T00:08:42.972Z,12.95
2023-05-21T00:11:09.721Z,10.98
2023-05-21T00:13:36.101Z,13.35
2023-05-21T00:16:02.484Z,12.75
2023-05-21T00:18:32.148Z,12.77
2023-05-21T00:20:59.194Z,11.85
2023-05-21T00:23:26.359Z,13.85
2023-05-21T00:25:53.213Z,14.05
2023-05-21T00:28:19.547Z,11.57
2023-05-21T00:30:45.881Z,12.68
2023-05-21T00:33:13.801Z,13.70
2023-05-21T00:35:40.330Z,13.82
2023-05-21T00:38:08.406Z,12.30
2023-05-21T00:40:36.277Z,13.02
2023-05-21T00:43:03.315Z,12.05
2023-05-21T00:45:29.756Z,12.52
2023-05-21T00:47:56.431Z,12.50
2023-05-21T00:50:23.481Z,13.00
2023-05-21T00:52:50.037Z,12.88
2023-05-21T00:55:16.499Z,13.43
2023-05-21T01:00:10.555Z,12.82
2023-05-21T01:02:37.984Z,11.75
2023-05-21T01:05:05.952Z,12.68
2023-05-21T01:07:34.782Z,12.68
2023-05-21T01:10:03.736Z,13.95
2023-05-21T01:12:31.765Z,12.35
2023-05-21T01:15:00.538Z,12.90
2023-05-21T01:17:29.740Z,12.85
2023-05-21T01:19:57.962Z,13.32
2023-05-21T01:22:25.163Z,12.65
2023-05-21T01:24:55.257Z,13.45
2023-05-21T01:27:22.424Z,13.18
2023-05-21T01:29:48.966Z,12.82
2023-05-21T01:32:28.492Z,12.60
2023-05-21T01:35:01.944Z,13.32
2023-05-21T01:37:40.682Z,12.95
2023-05-21T01:40:20.900Z,12.32
2023-05-21T01:42:47.412Z,14.90
2023-05-21T01:45:16.322Z,13.38
2023-05-21T01:47:47.586Z,13.05
2023-05-21T01:50:15.325Z,12.77
2023-05-21T01:53:00.990Z,11.90
2023-05-21T01:55:28.069Z,13.07
2023-05-21T01:57:55.750Z,11.32
2023-05-21T02:00:24.064Z,12.00
2023-05-21T02:02:51.613Z,12.32
2023-05-21T02:05:18.374Z,12.40
2023-05-21T02:07:45.978Z,12.70
2023-05-21T02:10:12.740Z,12.90
2023-05-21T02:12:39.446Z,13.23
2023-05-21T02:15:06.405Z,12.95
2023-05-21T02:17:34.138Z,12.98
2023-05-21T02:20:13.578Z,12.95
2023-05-21T02:22:40.845Z,13.13
2023-05-21T02:25:08.871Z,13.43
2023-05-21T02:27:36.697Z,12.05
2023-05-21T02:30:04.582Z,13.00
2023-05-21T02:32:34.924Z,13.25
2023-05-21T02:35:03.630Z,11.38
2023-05-21T02:37:33.667Z,13.65
2023-05-21T02:40:01.734Z,12.48
2023-05-21T02:42:28.127Z,13.05
2023-05-21T02:47:22.291Z,12.80
2023-05-21T02:49:50.535Z,11.90
2023-05-21T02:52:24.019Z,12.95
2023-05-21T02:54:51.487Z,11.80
2023-05-21T02:57:18.323Z,13.02
2023-05-21T02:59:45.546Z,12.77
2023-05-21T03:02:12.206Z,12.70
2023-05-21T03:04:45.903Z,13.18
2023-05-21T03:07:15.776Z,11.75
2023-05-21T03:09:42.461Z,11.68
2023-05-21T03:12:09.693Z,12.20
2023-05-21T03:14:36.115Z,12.10
2023-05-21T03:19:36.657Z,11.48
2023-05-21T03:22:03.878Z,13.02
2023-05-21T03:24:30.615Z,13.32
2023-05-21T03:26:57.370Z,12.43
2023-05-21T03:29:23.724Z,12.43
2023-05-21T03:31:52.704Z,12.88
2023-05-21T03:34:20.054Z,12.65
2023-05-21T03:36:47.124Z,12.50
2023-05-21T03:39:13.619Z,11.57
2023-05-21T03:44:06.602Z,12.45
2023-05-21T03:46:33.340Z,12.23
2023-05-21T03:48:59.822Z,12.75
2023-05-21T03:51:27.393Z,14.02
2023-05-21T03:53:53.765Z,12.77
2023-05-21T03:56:20.093Z,12.85
2023-05-21T03:58:46.822Z,12.45
2023-05-21T04:01:13.243Z,13.38
2023-05-21T04:06:10.221Z,12.57
2023-05-21T04:08:37.967Z,12.98
2023-05-21T04:11:04.409Z,12.50
2023-05-21T04:13:30.736Z,12.98
2023-05-21T04:15:57.091Z,13.15
2023-05-21T04:18:25.943Z,12.52
2023-05-21T04:20:52.882Z,13.70
2023-05-21T04:23:19.344Z,14.00
2023-05-21T04:28:11.991Z,12.07
2023-05-21T04:30:38.337Z,13.13
2023-05-21T04:33:04.754Z,12.23
2023-05-21T04:35:31.302Z,13.35
2023-05-21T04:37:57.747Z,13.02
2023-05-21T04:40:24.608Z,13.70
2023-05-21T04:42:51.398Z,12.10
2023-05-21T04:45:17.935Z,14.35
2023-05-21T04:47:44.407Z,12.98
2023-05-21T04:52:37.360Z,12.15
2023-05-21T04:55:04.130Z,12.80
2023-05-21T04:57:30.492Z,12.82
2023-05-21T04:59:57.851Z,12.70
2023-05-21T05:02:24.227Z,14.70
2023-05-21T05:04:50.602Z,13.30
2023-05-21T05:07:17.207Z,14.15
2023-05-21T05:09:43.765Z,12.07
2023-05-21T05:14:36.548Z,12.98
2023-05-21T05:19:29.617Z,12.50
2023-05-21T05:21:56.146Z,12.48
2023-05-21T05:24:22.646Z,12.35
2023-05-21T05:29:15.349Z,11.85
2023-05-21T05:31:41.766Z,12.27
2023-05-21T05:34:08.121Z,12.07
2023-05-21T05:36:34.499Z,12.63
2023-05-21T05:39:00.870Z,13.18
2023-05-21T05:41:27.240Z,12.48
2023-05-21T05:43:53.589Z,12.48
2023-05-21T05:46:20.024Z,12.90
2023-05-21T05:51:12.883Z,11.55
2023-05-21T05:53:39.456Z,12.73
2023-05-21T05:56:06.209Z,12.57
2023-05-21T05:58:32.671Z,12.18
2023-05-21T06:03:25.637Z,11.70
2023-05-21T06:05:52.418Z,11.85
2023-05-21T06:08:18.778Z,12.00
2023-05-21T06:10:45.151Z,13.02
2023-05-21T06:13:11.488Z,11.40
2023-05-21T06:15:39.264Z,12.57
2023-05-21T06:18:05.798Z,12.48
2023-05-21T06:20:32.286Z,12.10
2023-05-21T06:25:25.717Z,12.27
2023-05-21T06:27:52.068Z,12.30
2023-05-21T06:30:18.454Z,12.48
2023-05-21T06:35:11.352Z,12.25
2023-05-21T06:40:04.466Z,11.07
2023-05-21T06:42:30.821Z,13.43
2023-05-21T06:47:23.581Z,12.02
2023-05-21T06:49:49.973Z,12.30
2023-05-21T06:54:42.694Z,11.55
2023-05-21T06:57:09.051Z,12.02
2023-05-21T07:02:04.321Z,12.25
2023-05-21T07:04:31.350Z,12.27
2023-05-21T07:06:57.736Z,11.90
2023-05-21T07:09:24.103Z,11.18
2023-05-21T07:11:51.600Z,11.27
2023-05-21T07:14:17.932Z,11.13
2023-05-21T07:19:10.804Z,11.80
2023-05-21T07:21:37.198Z,12.48
2023-05-21T07:24:03.744Z,11.65
2023-05-21T07:26:30.200Z,12.05
2023-05-21T07:28:56.528Z,12.02
2023-05-21T07:31:23.071Z,11.88
2023-05-21T07:33:49.595Z,11.95
2023-05-21T07:36:16.078Z,11.90
2023-05-21T07:38:44.436Z,12.30
2023-05-21T07:41:10.763Z,12.38
2023-05-21T07:43:37.137Z,12.02
2023-05-21T07:46:03.535Z,12.25
2023-05-21T07:48:29.930Z,10.68
2023-05-21T07:50:58.067Z,12.07
2023-05-21T07:53:24.723Z,12.52
2023-05-21T07:55:51.217Z,11.80
2023-05-21T07:58:18.593Z,11.38
2023-05-21T08:00:47.112Z,11.48
2023-05-21T08:03:16.336Z,11.52
2023-05-21T08:05:50.865Z,11.95
2023-05-21T08:08:21.926Z,11.68
2023-05-21T08:10:48.350Z,12.30
2023-05-21T08:13:17.665Z,12.38
2023-05-21T08:15:44.144Z,12.15
2023-05-21T08:18:11.841Z,11.05
2023-05-21T08:20:38.427Z,12.07
2023-05-21T08:23:04.833Z,11.13
2023-05-21T08:25:31.621Z,11.50
2023-05-21T08:27:58.073Z,12.25
2023-05-21T08:30:24.437Z,12.63
2023-05-21T08:32:50.963Z,12.07
2023-05-21T08:35:17.380Z,11.18
2023-05-21T08:37:43.718Z,12.10
2023-05-21T08:40:12.165Z,13.13
2023-05-21T08:42:47.080Z,11.45
2023-05-21T08:45:14.642Z,11.23
2023-05-21T08:47:43.995Z,11.40
2023-05-21T08:50:16.277Z,11.43
2023-05-21T08:52:43.774Z,11.43
2023-05-21T08:55:10.681Z,10.60
2023-05-21T08:57:39.414Z,10.80
2023-05-21T09:00:07.240Z,10.73
2023-05-21T09:02:34.936Z,11.10
2023-05-21T09:05:03.206Z,10.60
2023-05-21T09:07:34.611Z,9.45
2023-05-21T09:10:10.554Z,10.57
2023-05-21T09:12:40.248Z,10.77
2023-05-21T09:15:07.501Z,9.98
2023-05-21T09:17:33.901Z,10.40
2023-05-21T09:20:17.879Z,12.82
2023-05-21T09:22:45.317Z,10.98
2023-05-21T09:25:15.931Z,9.75
2023-05-21T09:27:42.991Z,8.75
2023-05-21T09:30:20.870Z,10.40
2023-05-21T09:32:57.858Z,10.85
2023-05-21T09:35:24.647Z,11.27
2023-05-21T09:37:52.820Z,10.73
2023-05-21T09:40:23.465Z,10.27
2023-05-21T09:42:51.676Z,9.85
2023-05-21T09:45:25.841Z,10.10
2023-05-21T09:47:53.817Z,9.23
2023-05-21T09:50:24.666Z,10.50
2023-05-21T09:52:53.091Z,9.80
2023-05-21T09:55:23.303Z,10.20
2023-05-21T09:57:50.882Z,9.68
2023-05-21T10:00:17.822Z,10.18
2023-05-21T10:02:49.008Z,9.82
2023-05-21T10:05:16.839Z,10.43
2023-05-21T10:07:49.144Z,9.88
2023-05-21T10:12:45.996Z,9.50
2023-05-21T10:15:20.842Z,9.50
2023-05-21T10:17:48.782Z,9.07
2023-05-21T10:20:16.358Z,9.18
2023-05-21T10:22:44.350Z,10.00
2023-05-21T10:25:13.132Z,10.30
2023-05-21T10:27:39.652Z,9.07
2023-05-21T10:30:06.815Z,9.93
2023-05-21T10:32:33.837Z,9.80
2023-05-21T10:35:02.351Z,9.60
2023-05-21T10:37:29.554Z,10.43
2023-05-21T10:39:56.894Z,10.82
2023-05-21T10:42:32.391Z,8.30
2023-05-21T10:45:23.522Z,9.27
2023-05-21T10:48:19.166Z,10.65
2023-05-21T10:51:13.650Z,9.75
2023-05-21T10:53:58.174Z,9.70
2023-05-21T10:56:51.281Z,9.95
2023-05-21T10:59:22.005Z,9.43
2023-05-21T11:01:53.229Z,9.98
2023-05-21T11:04:26.204Z,9.55
2023-05-21T11:06:52.705Z,9.95
2023-05-21T11:09:19.982Z,10.52
2023-05-21T11:12:09.686Z,9.35
2023-05-21T11:14:39.579Z,10.13
2023-05-21T11:17:09.077Z,10.02
2023-05-21T11:19:40.664Z,10.07
2023-05-21T11:22:09.428Z,10.38
2023-05-21T11:24:38.370Z,10.80
2023-05-21T11:27:05.774Z,8.93
2023-05-21T11:29:40.416Z,9.65
2023-05-21T11:32:11.764Z,10.38
2023-05-21T11:34:43.434Z,10.18
2023-05-21T11:37:20.736Z,9.80
2023-05-21T11:39:48.381Z,9.93
2023-05-21T11:42:29.218Z,9.88
2023-05-21T11:44:58.304Z,10.00
2023-05-21T11:47:26.160Z,10.55
2023-05-21T11:49:52.731Z,10.00
2023-05-21T11:52:22.164Z,10.15
2023-05-21T11:54:53.051Z,10.15
2023-05-21T11:57:19.815Z,9.13
2023-05-21T11:59:46.935Z,9.13
2023-05-21T12:02:17.709Z,8.10
2023-05-21T12:04:45.916Z,9.32
2023-05-21T12:07:15.251Z,9.73
2023-05-21T12:09:50.059Z,9.50
2023-05-21T12:12:24.244Z,9.50
2023-05-21T12:14:51.741Z,9.98
2023-05-21T12:17:19.771Z,9.27
2023-05-21T12:19:47.683Z,9.65
2023-05-21T12:22:17.621Z,9.27
2023-05-21T12:24:45.086Z,7.93
2023-05-21T12:27:13.363Z,7.55
2023-05-21T12:29:42.455Z,8.93
2023-05-21T12:32:15.201Z,8.77
2023-05-21T12:35:07.107Z,8.43
2023-05-21T12:54:51.004Z,8.52
2023-05-21T12:57:23.505Z,9.50
2023-05-21T12:59:53.791Z,8.60
2023-05-21T13:02:26.850Z,8.85
2023-05-21T13:04:58.252Z,8.80
2023-05-21T13:07:26.388Z,8.38
2023-05-21T13:09:55.693Z,8.45
2023-05-21T13:12:23.900Z,7.97
2023-05-21T13:14:51.556Z,8.90
2023-05-21T13:17:18.980Z,8.88
2023-05-21T13:20:09.099Z,9.13
2023-05-21T13:22:43.775Z,8.38
2023-05-21T13:25:11.445Z,8.85
2023-05-21T13:27:38.746Z,9.23
2023-05-21T13:30:06.733Z,9.90
2023-05-21T13:32:33.489Z,8.93
2023-05-21T13:34:59.952Z,9.43
2023-05-21T13:37:26.363Z,8.57
2023-05-21T13:39:52.865Z,9.13
2023-05-21T13:42:19.873Z,9.07
2023-05-21T13:44:47.435Z,8.95
2023-05-21T13:47:14.239Z,8.77
2023-05-21T13:49:40.872Z,7.45
2023-05-21T13:52:08.131Z,8.13
2023-05-21T13:54:35.332Z,6.38
2023-05-21T13:57:01.972Z,7.43
2023-05-21T13:59:28.955Z,7.70
2023-05-21T14:01:58.069Z,7.60
2023-05-21T14:04:24.701Z,6.55
2023-05-21T14:06:52.280Z,8.02
2023-05-21T14:09:18.789Z,9.15
2023-05-21T14:11:45.521Z,8.68
2023-05-21T14:14:14.087Z,8.70
2023-05-21T14:16:40.702Z,9.35
2023-05-21T14:19:07.140Z,8.55
2023-05-21T14:21:33.537Z,8.30
2023-05-21T14:24:05.954Z,7.65
2023-05-21T14:26:32.338Z,7.60
2023-05-21T14:29:00.533Z,6.95
2023-05-21T14:31:27.004Z,7.10
2023-05-21T14:33:53.475Z,7.13
2023-05-21T14:36:19.874Z,7.28
2023-05-21T14:38:46.449Z,7.38
2023-05-21T14:41:13.302Z,7.30
2023-05-21T14:43:39.686Z,7.75
2023-05-21T14:46:06.294Z,7.43
2023-05-21T14:48:32.713Z,7.05
2023-05-21T14:51:02.165Z,8.10
2023-05-21T14:53:28.590Z,8.63
2023-05-21T14:55:55.080Z,7.65
2023-05-21T14:58:23.833Z,8.27
2023-05-21T15:00:50.254Z,7.63
2023-05-21T15:03:16.771Z,7.95
2023-05-21T15:05:43.233Z,7.93
2023-05-21T15:08:09.663Z,7.15
2023-05-21T15:10:36.226Z,7.10
2023-05-21T15:13:02.600Z,7.05
2023-05-21T15:15:29.073Z,7.13
2023-05-21T15:17:57.677Z,7.00
2023-05-21T15:20:24.271Z,7.47
2023-05-21T15:22:59.007Z,7.43
2023-05-21T15:25:34.379Z,7.05
2023-05-21T15:28:00.967Z,6.72
2023-05-21T15:30:27.335Z,7.28
2023-05-21T15:32:54.009Z,7.47
2023-05-21T15:35:20.558Z,7.00
2023-05-21T15:37:47.232Z,7.55
2023-05-21T15:40:13.904Z,7.22
2023-05-21T15:42:40.515Z,7.32
2023-05-21T15:45:07.336Z,6.75
2023-05-21T15:47:34.957Z,7.05
2023-05-21T15:50:01.374Z,7.07
2023-05-21T15:52:27.780Z,7.53
2023-05-21T15:54:54.791Z,7.20
2023-05-21T15:57:21.218Z,7.00
2023-05-21T15:59:47.694Z,7.82
2023-05-21T16:02:14.138Z,9.02
2023-05-21T16:04:40.566Z,7.45
2023-05-21T16:07:07.067Z,6.95
2023-05-21T16:09:33.687Z,8.00
2023-05-21T16:12:00.099Z,7.82
2023-05-21T16:14:26.699Z,7.80
2023-05-21T16:16:53.182Z,7.70
2023-05-21T16:19:19.669Z,7.60
2023-05-21T16:21:46.315Z,7.95
2023-05-21T16:24:12.733Z,6.85
2023-05-21T16:26:39.148Z,7.15
2023-05-21T16:29:05.692Z,7.80
2023-05-21T16:31:32.115Z,7.68
2023-05-21T16:33:58.548Z,6.95
2023-05-21T16:36:24.915Z,7.32
2023-05-21T16:38:54.373Z,6.95
2023-05-21T16:41:21.685Z,7.45
2023-05-21T16:43:48.150Z,7.80
2023-05-21T16:46:14.676Z,7.40
2023-05-21T16:48:42.609Z,7.32
2023-05-21T16:51:09.584Z,7.55
2023-05-21T16:53:36.018Z,7.00
2023-05-21T16:56:02.579Z,7.57
2023-05-21T16:58:29.738Z,7.50
2023-05-21T17:00:56.284Z,9.10
2023-05-21T17:03:22.944Z,8.38
2023-05-21T17:05:49.469Z,8.15
2023-05-21T17:08:15.869Z,7.72
2023-05-21T17:10:42.495Z,8.55
2023-05-21T17:13:18.264Z,7.63
2023-05-21T17:15:47.689Z,7.38
2023-05-21T17:18:14.207Z,7.57
2023-05-21T17:20:40.767Z,8.30
2023-05-21T17:23:07.143Z,7.45
2023-05-21T17:25:34.589Z,8.05
2023-05-21T17:28:01.266Z,7.53
2023-05-21T17:30:27.718Z,7.60
2023-05-21T17:32:54.569Z,8.27
2023-05-21T17:35:20.963Z,7.65
2023-05-21T17:37:48.032Z,7.40
2023-05-21T17:40:14.566Z,8.45
2023-05-21T17:42:40.984Z,7.60
2023-05-21T17:45:07.742Z,8.23
2023-05-21T17:47:34.487Z,8.13
2023-05-21T17:50:00.950Z,7.43
2023-05-21T17:52:27.412Z,7.40
2023-05-21T17:54:53.914Z,8.07
2023-05-21T17:57:20.291Z,7.63
2023-05-21T17:59:46.728Z,7.45
2023-05-21T18:02:13.632Z,7.13
2023-05-21T18:04:40.101Z,7.20
2023-05-21T18:07:07.171Z,7.63
2023-05-21T18:09:34.416Z,7.13
2023-05-21T18:12:02.697Z,7.70
2023-05-21T18:14:29.210Z,7.72
2023-05-21T18:16:56.000Z,7.65
2023-05-21T18:19:22.533Z,7.97
2023-05-21T18:21:51.491Z,7.22
2023-05-21T18:24:17.956Z,7.78
2023-05-21T18:26:45.273Z,6.65
2023-05-21T18:29:12.974Z,7.05
2023-05-21T18:31:39.542Z,7.68
2023-05-21T18:34:06.063Z,17.25
2023-05-21T18:36:38.671Z,10.38
2023-05-21T18:39:07.076Z,12.02
2023-05-21T18:41:35.288Z,10.05
2023-05-21T18:44:02.001Z,10.52
2023-05-21T18:46:28.997Z,10.20
2023-05-21T18:48:56.313Z,12.73
2023-05-21T18:51:36.111Z,8.57
2023-05-21T18:54:16.177Z,10.38
2023-05-21T18:56:42.661Z,9.20
2023-05-21T18:59:09.087Z,12.65
2023-05-21T19:01:37.070Z,9.00
2023-05-21T19:04:06.376Z,9.10
2023-05-21T19:06:37.244Z,9.07
2023-05-21T19:09:03.667Z,8.80
2023-05-21T19:11:34.205Z,8.88
2023-05-21T19:14:00.882Z,8.80
2023-05-21T19:16:38.275Z,8.38
2023-05-21T19:19:05.992Z,8.32
2023-05-21T19:21:35.401Z,9.00
2023-05-21T19:24:03.598Z,8.77
2023-05-21T19:26:31.562Z,8.85
2023-05-21T19:29:00.704Z,9.00
2023-05-21T19:31:27.200Z,11.75
2023-05-21T19:33:53.852Z,10.93
2023-05-21T19:36:21.151Z,9.23
2023-05-21T19:38:51.783Z,9.77
2023-05-21T19:41:19.835Z,10.55
2023-05-21T19:43:46.490Z,9.73
2023-05-21T19:46:19.828Z,9.48
2023-05-21T19:48:49.609Z,9.82
2023-05-21T19:51:18.508Z,9.90
2023-05-21T19:53:44.931Z,10.35
2023-05-21T19:56:11.386Z,10.50
2023-05-21T19:58:40.828Z,10.50
2023-05-21T20:01:10.369Z,10.55
2023-05-21T20:03:39.761Z,10.20
2023-05-21T20:06:16.619Z,10.18
2023-05-21T20:08:43.089Z,12.70
2023-05-21T20:11:09.531Z,11.40
2023-05-21T20:13:35.948Z,9.73
2023-05-21T20:16:02.470Z,9.57
2023-05-21T20:18:28.922Z,10.00
2023-05-21T20:20:56.849Z,9.25
2023-05-21T20:23:27.360Z,10.13
2023-05-21T20:25:56.175Z,9.55
2023-05-21T20:28:23.165Z,10.00
2023-05-21T20:31:00.016Z,9.95
2023-05-21T20:33:27.870Z,10.50
2023-05-21T20:35:54.338Z,10.50
2023-05-21T20:38:20.998Z,10.25
2023-05-21T20:40:47.457Z,10.57
2023-05-21T20:43:15.189Z,10.00
2023-05-21T20:45:41.974Z,10.63
2023-05-21T20:48:09.913Z,9.95
2023-05-21T20:50:37.325Z,10.70
2023-05-21T20:53:10.088Z,9.70
2023-05-21T20:58:05.171Z,11.00
2023-05-21T21:00:38.315Z,13.40
2023-05-21T21:06:03.706Z,11.07
2023-05-21T21:08:30.111Z,10.35
2023-05-21T21:10:58.732Z,9.73
2023-05-21T21:13:25.167Z,10.00
2023-05-21T21:15:51.643Z,10.73
2023-05-21T21:18:18.073Z,10.30
2023-05-21T21:20:49.341Z,10.70
2023-05-21T21:23:16.459Z,10.63
2023-05-21T21:25:42.842Z,11.65
2023-05-21T21:28:10.584Z,9.93
2023-05-21T21:30:39.624Z,9.52
2023-05-21T21:33:09.637Z,9.77
2023-05-21T21:35:36.259Z,10.57
2023-05-21T21:38:04.784Z,10.43
2023-05-21T21:40:31.271Z,10.90
2023-05-21T21:42:58.210Z,10.82
2023-05-21T21:45:24.621Z,10.85
2023-05-21T21:47:51.077Z,10.43
2023-05-21T21:50:17.583Z,10.70
2023-05-21T21:52:45.894Z,10.60
2023-05-21T21:55:12.525Z,10.52
2023-05-21T21:57:39.222Z,10.43
2023-05-21T22:00:19.334Z,10.98
2023-05-21T22:02:48.691Z,9.70
2023-05-21T22:05:16.356Z,10.05
2023-05-21T22:07:46.405Z,9.48
2023-05-21T22:10:16.803Z,10.30
2023-05-21T22:12:44.253Z,12.48
2023-05-21T22:15:27.327Z,15.70
2023-05-21T22:17:54.508Z,14.82
2023-05-21T22:20:25.908Z,15.27
2023-05-21T22:22:54.786Z,14.93
2023-05-21T22:25:21.745Z,14.45
2023-05-21T22:27:48.239Z,12.30
2023-05-21T22:30:14.795Z,12.30
2023-05-21T22:32:41.408Z,11.70
2023-05-21T22:35:08.400Z,10.50
2023-05-21T22:37:35.074Z,11.75
2023-05-21T22:40:01.475Z,10.98
2023-05-21T22:42:27.871Z,11.13
2023-05-21T22:47:23.660Z,11.45
2023-05-21T22:49:53.121Z,10.43
2023-05-21T22:52:21.864Z,11.77
2023-05-21T22:54:48.880Z,11.55
2023-05-21T22:57:15.542Z,11.48
2023-05-21T22:59:41.922Z,11.57
2023-05-21T23:04:43.288Z,12.05
2023-05-21T23:07:10.575Z,11.30
2023-05-21T23:09:36.923Z,11.02
2023-05-21T23:14:30.008Z,10.75
2023-05-21T23:19:29.688Z,10.60
2023-05-21T23:21:56.328Z,11.40
2023-05-21T23:24:23.088Z,9.63
2023-05-21T23:26:49.741Z,10.88
2023-05-21T23:29:16.158Z,11.00
2023-05-21T23:31:42.611Z,12.18
2023-05-21T23:34:09.547Z,11.48
2023-05-21T23:36:35.948Z,10.43
2023-05-21T23:41:28.835Z,9.85
2023-05-21T23:43:55.405Z,10.45
2023-05-21T23:46:21.824Z,11.95
2023-05-21T23:48:48.294Z,11.48
2023-05-21T23:51:15.527Z,10.93
2023-05-21T23:53:41.888Z,10.32
2023-05-21T23:58:34.564Z,11.20
